createdAt,value
2018-12-10T00:02:13.140Z,7.10
2018-12-10T00:04:40.101Z,7.10
2018-12-10T00:07:07.072Z,7.10
2018-12-10T00:09:34.049Z,7.10
2018-12-10T00:12:01.005Z,7.20
2018-12-10T00:14:27.956Z,7.10
2018-12-10T00:16:54.975Z,7.10
2018-12-10T00:19:21.944Z,7.10
2018-12-10T00:21:48.902Z,7.00
2018-12-10T00:24:16.185Z,7.00
2018-12-10T00:26:43.048Z,7.00
2018-12-10T00:29:10.016Z,6.90
2018-12-10T00:31:37.032Z,7.00
2018-12-10T00:34:03.985Z,6.90
2018-12-10T00:36:30.954Z,7.00
2018-12-10T00:38:57.943Z,6.80
2018-12-10T00:41:24.901Z,6.90
2018-12-10T00:43:51.889Z,6.90
2018-12-10T00:46:18.877Z,6.80
2018-12-10T00:48:45.843Z,6.80
2018-12-10T00:51:12.796Z,6.80
2018-12-10T00:53:39.787Z,6.90
2018-12-10T00:56:07.093Z,6.80
2018-12-10T00:58:34.177Z,6.80
2018-12-10T01:01:01.246Z,6.80
2018-12-10T01:03:28.211Z,6.80
2018-12-10T01:05:55.175Z,6.80
2018-12-10T01:08:22.188Z,6.90
2018-12-10T01:10:49.156Z,6.80
2018-12-10T01:13:16.210Z,6.80
2018-12-10T01:15:43.213Z,6.80
2018-12-10T01:18:10.185Z,6.90
2018-12-10T01:20:37.168Z,6.90
2018-12-10T01:23:04.187Z,6.70
2018-12-10T01:25:31.146Z,6.70
2018-12-10T01:27:58.092Z,6.70
2018-12-10T01:30:25.075Z,6.70
2018-12-10T01:32:52.029Z,6.70
2018-12-10T01:35:18.976Z,6.70
2018-12-10T01:37:45.954Z,6.70
2018-12-10T01:40:12.949Z,6.80
2018-12-10T01:42:39.900Z,6.80
2018-12-10T01:45:07.423Z,6.80
2018-12-10T01:47:34.529Z,6.80
2018-12-10T01:50:01.572Z,6.80
2018-12-10T01:52:28.553Z,6.80
2018-12-10T01:54:55.500Z,6.70
2018-12-10T01:57:22.928Z,6.80
2018-12-10T01:59:49.903Z,6.70
2018-12-10T02:02:16.869Z,6.70
2018-12-10T02:04:43.829Z,6.80
2018-12-10T02:07:10.822Z,6.80
2018-12-10T02:09:37.780Z,6.70
2018-12-10T02:12:04.729Z,6.80
2018-12-10T02:14:31.722Z,6.70
2018-12-10T02:16:58.696Z,6.60
2018-12-10T02:19:25.662Z,6.60
2018-12-10T02:21:52.637Z,6.60
2018-12-10T02:24:19.591Z,6.60
2018-12-10T02:26:46.560Z,6.70
2018-12-10T02:29:14.322Z,6.80
2018-12-10T02:31:42.253Z,6.60
2018-12-10T02:34:09.201Z,6.60
2018-12-10T02:36:36.202Z,6.60
2018-12-10T02:39:04.302Z,6.60
2018-12-10T02:41:31.267Z,6.60
2018-12-10T02:43:58.240Z,6.50
2018-12-10T02:46:25.179Z,6.50
2018-12-10T02:48:52.156Z,6.60
2018-12-10T02:51:19.137Z,6.60
2018-12-10T02:53:46.089Z,6.60
2018-12-10T02:56:13.061Z,6.60
2018-12-10T02:58:40.837Z,6.60
2018-12-10T03:01:07.816Z,6.60
2018-12-10T03:03:34.781Z,6.50
2018-12-10T03:06:01.767Z,6.50
2018-12-10T03:08:28.728Z,6.60
2018-12-10T03:10:55.702Z,6.50
2018-12-10T03:13:22.691Z,6.60
2018-12-10T03:15:49.644Z,6.60
2018-12-10T03:18:16.587Z,6.60
2018-12-10T03:20:43.607Z,6.60
2018-12-10T03:23:10.602Z,6.60
2018-12-10T03:25:37.558Z,6.60
2018-12-10T03:28:04.526Z,6.60
2018-12-10T03:30:31.526Z,6.50
2018-12-10T03:32:58.512Z,6.40
2018-12-10T03:35:25.518Z,6.50
2018-12-10T03:37:52.521Z,6.40
2018-12-10T03:40:19.440Z,6.40
2018-12-10T03:42:46.426Z,6.40
2018-12-10T03:45:13.385Z,6.40
2018-12-10T03:47:40.352Z,6.50
2018-12-10T03:50:07.346Z,6.40
2018-12-10T03:52:34.291Z,6.50
2018-12-10T03:55:01.265Z,6.50
2018-12-10T03:57:28.280Z,6.50
2018-12-10T03:59:55.636Z,6.60
2018-12-10T04:02:22.593Z,6.40
2018-12-10T04:04:49.600Z,6.50
2018-12-10T04:07:16.564Z,6.40
2018-12-10T04:09:43.545Z,6.40
2018-12-10T04:12:10.524Z,6.40
2018-12-10T04:14:37.513Z,6.40
2018-12-10T04:17:04.980Z,6.30
2018-12-10T04:19:31.954Z,6.20
2018-12-10T04:21:58.898Z,6.00
2018-12-10T04:24:25.867Z,6.30
2018-12-10T04:26:52.874Z,6.20
2018-12-10T04:29:19.827Z,6.20
2018-12-10T04:31:46.785Z,6.40
2018-12-10T04:34:13.775Z,6.30
2018-12-10T04:36:40.715Z,6.20
2018-12-10T04:39:07.707Z,6.20
2018-12-10T04:41:34.705Z,6.30
2018-12-10T04:44:01.750Z,6.20
2018-12-10T04:46:28.635Z,6.10
2018-12-10T04:48:55.596Z,6.10
2018-12-10T04:51:22.569Z,6.00
2018-12-10T04:53:49.509Z,6.30
2018-12-10T04:56:16.520Z,6.50
2018-12-10T04:58:43.489Z,6.60
2018-12-10T05:01:10.751Z,6.70
2018-12-10T05:03:37.752Z,6.70
2018-12-10T05:06:04.716Z,6.80
2018-12-10T05:08:31.685Z,6.90
2018-12-10T05:10:58.676Z,6.90
2018-12-10T05:13:25.622Z,6.90
2018-12-10T05:15:52.589Z,6.80
2018-12-10T05:18:19.581Z,6.90
2018-12-10T05:20:50.693Z,6.80
2018-12-10T05:23:17.648Z,6.70
2018-12-10T05:25:44.623Z,6.50
2018-12-10T05:28:11.589Z,6.50
2018-12-10T05:30:38.567Z,6.40
2018-12-10T05:33:05.544Z,6.20
2018-12-10T05:35:32.500Z,6.20
2018-12-10T05:37:59.588Z,6.10
2018-12-10T05:40:26.575Z,6.10
2018-12-10T05:42:53.595Z,6.10
2018-12-10T05:45:20.585Z,6.10
2018-12-10T05:47:47.585Z,6.20
2018-12-10T05:50:14.572Z,6.10
2018-12-10T05:52:41.543Z,5.90
2018-12-10T05:55:08.581Z,6.00
2018-12-10T05:57:35.758Z,5.90
2018-12-10T06:00:02.773Z,5.90
2018-12-10T06:02:30.285Z,5.90
2018-12-10T06:04:57.339Z,5.80
2018-12-10T06:07:24.316Z,5.80
2018-12-10T06:09:51.345Z,5.80
2018-12-10T06:12:18.279Z,5.80
2018-12-10T06:14:45.243Z,5.80
2018-12-10T06:17:12.236Z,5.80
2018-12-10T06:19:39.225Z,5.70
2018-12-10T06:22:06.189Z,5.60
2018-12-10T06:24:33.188Z,5.50
2018-12-10T06:27:00.207Z,5.40
2018-12-10T06:29:27.197Z,5.50
2018-12-10T06:31:54.360Z,5.50
2018-12-10T06:34:21.388Z,5.50
2018-12-10T06:36:48.353Z,5.50
2018-12-10T06:39:15.394Z,5.50
2018-12-10T06:41:42.368Z,5.50
2018-12-10T06:44:09.341Z,5.50
2018-12-10T06:46:36.331Z,5.60
2018-12-10T06:49:03.293Z,5.60
2018-12-10T06:51:30.248Z,5.70
2018-12-10T06:53:57.242Z,5.50
2018-12-10T06:56:24.196Z,5.50
2018-12-10T06:58:51.160Z,5.40
2018-12-10T07:01:18.142Z,5.40
2018-12-10T07:03:52.929Z,5.40
2018-12-10T07:06:19.910Z,5.40
2018-12-10T07:08:46.888Z,5.30
2018-12-10T07:11:13.885Z,5.30
2018-12-10T07:13:40.914Z,5.30
2018-12-10T07:16:07.980Z,5.30
2018-12-10T07:18:34.970Z,5.40
2018-12-10T07:21:01.960Z,5.30
2018-12-10T07:23:28.949Z,5.40
2018-12-10T07:25:55.897Z,5.50
2018-12-10T07:28:22.868Z,5.40
2018-12-10T07:30:49.840Z,5.40
2018-12-10T07:33:16.800Z,5.40
2018-12-10T07:35:43.821Z,5.40
2018-12-10T07:38:10.786Z,5.50
2018-12-10T07:40:37.759Z,5.60
2018-12-10T07:43:04.754Z,5.50
2018-12-10T07:45:31.717Z,5.50
2018-12-10T07:47:58.691Z,5.60
2018-12-10T07:50:25.679Z,5.60
2018-12-10T07:52:52.633Z,5.60
2018-12-10T07:55:19.590Z,5.70
2018-12-10T07:57:46.625Z,5.70
2018-12-10T08:00:13.581Z,5.70
2018-12-10T08:02:40.557Z,5.80
2018-12-10T08:05:12.234Z,5.70
2018-12-10T08:07:34.821Z,5.80
2018-12-10T08:10:01.792Z,5.70
2018-12-10T08:12:28.776Z,5.80
2018-12-10T08:14:55.773Z,5.90
2018-12-10T08:17:22.771Z,5.80
2018-12-10T08:19:49.774Z,5.90
2018-12-10T08:22:16.755Z,5.90
2018-12-10T08:24:43.732Z,5.80
2018-12-10T08:27:10.758Z,5.70
2018-12-10T08:29:37.733Z,5.70
2018-12-10T08:32:04.721Z,5.80
2018-12-10T08:34:31.698Z,5.70
2018-12-10T08:36:58.670Z,5.80
2018-12-10T08:39:25.688Z,6.00
2018-12-10T08:41:52.612Z,5.90
2018-12-10T08:44:19.553Z,6.10
2018-12-10T08:46:46.515Z,6.20
2018-12-10T08:49:13.481Z,6.10
2018-12-10T08:51:40.454Z,6.30
2018-12-10T08:54:07.508Z,6.30
2018-12-10T08:56:34.548Z,6.10
2018-12-10T08:59:01.489Z,6.10
2018-12-10T09:01:28.452Z,6.00
2018-12-10T09:03:55.453Z,6.00
2018-12-10T09:06:23.093Z,6.00
2018-12-10T09:08:50.048Z,6.00
2018-12-10T09:11:17.045Z,5.90
2018-12-10T09:13:44.012Z,5.90
2018-12-10T09:16:10.998Z,5.90
2018-12-10T09:18:37.989Z,6.00
2018-12-10T09:21:04.966Z,6.10
2018-12-10T09:23:31.972Z,6.20
2018-12-10T09:25:58.895Z,6.30
2018-12-10T09:28:25.869Z,6.20
2018-12-10T09:30:52.829Z,6.30
2018-12-10T09:33:19.813Z,6.40
2018-12-10T09:35:47.007Z,6.50
2018-12-10T09:38:13.744Z,6.60
2018-12-10T09:40:40.726Z,6.60
2018-12-10T09:43:07.677Z,6.70
2018-12-10T09:45:34.640Z,7.20
2018-12-10T09:48:01.627Z,8.00
2018-12-10T09:50:28.590Z,9.00
2018-12-10T09:52:55.535Z,9.30
2018-12-10T09:55:22.539Z,9.20
2018-12-10T09:57:49.512Z,8.70
2018-12-10T10:00:16.488Z,8.30
2018-12-10T10:02:43.464Z,7.80
2018-12-10T10:05:10.425Z,7.50
2018-12-10T10:07:37.819Z,7.40
2018-12-10T10:10:05.408Z,7.30
2018-12-10T10:12:32.397Z,7.20
2018-12-10T10:14:59.371Z,7.10
2018-12-10T10:17:26.357Z,7.20
2018-12-10T10:19:53.297Z,7.00
2018-12-10T10:22:20.241Z,6.80
2018-12-10T10:24:47.247Z,6.60
2018-12-10T10:27:14.304Z,6.50
2018-12-10T10:29:41.278Z,6.50
2018-12-10T10:32:08.249Z,6.50
2018-12-10T10:34:35.197Z,6.40
2018-12-10T10:37:02.218Z,6.40
2018-12-10T10:39:29.188Z,6.30
2018-12-10T10:41:57.352Z,6.40
2018-12-10T10:44:23.118Z,6.40
2018-12-10T10:46:50.129Z,6.40
2018-12-10T10:49:17.105Z,6.40
2018-12-10T10:51:44.094Z,6.40
2018-12-10T10:54:11.044Z,6.30
2018-12-10T10:56:38.008Z,6.40
2018-12-10T10:59:04.965Z,6.50
2018-12-10T11:01:37.511Z,6.60
2018-12-10T11:04:04.480Z,6.80
2018-12-10T11:06:31.439Z,7.10
2018-12-10T11:08:58.850Z,7.00
2018-12-10T11:11:25.812Z,7.00
2018-12-10T11:13:52.771Z,7.00
2018-12-10T11:16:19.733Z,7.00
2018-12-10T11:18:46.713Z,6.80
2018-12-10T11:21:13.712Z,6.80
2018-12-10T11:23:40.708Z,6.90
2018-12-10T11:26:07.712Z,6.90
2018-12-10T11:28:34.717Z,6.90
2018-12-10T11:31:01.693Z,7.10
2018-12-10T11:33:28.649Z,7.00
2018-12-10T11:35:55.595Z,7.00
2018-12-10T11:38:22.583Z,6.90
2018-12-10T11:40:49.555Z,6.80
2018-12-10T11:43:16.553Z,6.90
2018-12-10T11:45:43.540Z,6.90
2018-12-10T11:48:10.507Z,6.90
2018-12-10T11:50:37.466Z,7.10
2018-12-10T11:53:04.461Z,7.10
2018-12-10T11:55:31.421Z,7.00
2018-12-10T11:57:58.365Z,6.90
2018-12-10T12:00:25.344Z,6.90
2018-12-10T12:02:52.322Z,6.80
2018-12-10T12:05:19.283Z,6.80
2018-12-10T12:07:46.261Z,6.90
2018-12-10T12:10:13.758Z,6.90
2018-12-10T12:12:40.725Z,7.00
2018-12-10T12:15:07.702Z,6.80
2018-12-10T12:17:34.697Z,6.90
2018-12-10T12:20:01.784Z,6.90
2018-12-10T12:22:28.829Z,6.80
2018-12-10T12:24:55.800Z,6.90
2018-12-10T12:27:23.915Z,6.90
2018-12-10T12:29:49.732Z,6.70
2018-12-10T12:32:16.673Z,6.80
2018-12-10T12:34:43.629Z,6.80
2018-12-10T12:37:10.681Z,6.90
2018-12-10T12:39:37.756Z,6.80
2018-12-10T12:42:04.701Z,6.80
2018-12-10T12:44:31.749Z,6.80
2018-12-10T12:46:58.716Z,6.70
2018-12-10T12:49:25.668Z,6.60
2018-12-10T12:51:52.881Z,6.40
2018-12-10T12:54:19.857Z,6.50
2018-12-10T12:56:46.820Z,6.50
2018-12-10T12:59:13.790Z,6.40
2018-12-10T13:01:48.983Z,6.50
2018-12-10T13:04:07.711Z,6.60
2018-12-10T13:06:34.713Z,6.70
2018-12-10T13:09:01.689Z,6.70
2018-12-10T13:11:28.891Z,6.60
2018-12-10T13:13:55.872Z,6.70
2018-12-10T13:16:22.842Z,6.60
2018-12-10T13:18:49.800Z,6.70
2018-12-10T13:21:17.034Z,6.70
2018-12-10T13:23:44.122Z,6.80
2018-12-10T13:26:11.144Z,6.80
2018-12-10T13:28:38.177Z,6.90
2018-12-10T13:31:05.186Z,6.80
2018-12-10T13:33:32.173Z,6.90
2018-12-10T13:35:59.164Z,7.00
2018-12-10T13:38:26.245Z,7.40
2018-12-10T13:40:53.196Z,7.50
2018-12-10T13:43:20.156Z,7.50
2018-12-10T13:45:47.125Z,7.50
2018-12-10T13:48:14.101Z,7.60
2018-12-10T13:50:41.072Z,7.70
2018-12-10T13:53:08.039Z,7.80
2018-12-10T13:55:34.992Z,7.90
2018-12-10T13:58:02.701Z,8.10
2018-12-10T14:00:28.965Z,8.20
2018-12-10T14:02:55.949Z,8.20
2018-12-10T14:05:23.172Z,8.10
2018-12-10T14:07:50.152Z,8.00
2018-12-10T14:10:17.123Z,8.10
2018-12-10T14:12:44.305Z,8.20
2018-12-10T14:15:11.305Z,8.10
2018-12-10T14:17:38.266Z,8.10
2018-12-10T14:20:06.557Z,8.10
2018-12-10T14:22:33.525Z,8.20
2018-12-10T14:25:00.501Z,8.10
2018-12-10T14:27:27.500Z,8.00
2018-12-10T14:29:54.454Z,8.10
2018-12-10T14:32:21.464Z,8.00
2018-12-10T14:34:48.492Z,8.00
2018-12-10T14:37:15.473Z,7.80
2018-12-10T14:39:42.441Z,7.80
2018-12-10T14:42:22.640Z,7.80
2018-12-10T14:44:49.629Z,7.70
2018-12-10T14:47:16.587Z,7.70
2018-12-10T14:49:43.547Z,7.60
2018-12-10T14:52:10.546Z,7.50
2018-12-10T14:54:37.516Z,7.20
2018-12-10T14:57:04.548Z,7.10
2018-12-10T14:59:31.546Z,7.10
2018-12-10T15:01:58.516Z,7.10
2018-12-10T15:04:25.488Z,7.00
2018-12-10T15:06:52.457Z,6.90
2018-12-10T15:09:19.405Z,6.90
2018-12-10T15:11:46.414Z,6.90
2018-12-10T15:14:13.830Z,6.80
2018-12-10T15:16:40.804Z,6.80
2018-12-10T15:19:07.788Z,6.70
2018-12-10T15:21:34.744Z,6.70
2018-12-10T15:24:01.688Z,6.70
2018-12-10T15:26:28.712Z,6.60
2018-12-10T15:28:55.667Z,6.50
2018-12-10T15:31:22.626Z,6.50
2018-12-10T15:33:49.633Z,6.40
2018-12-10T15:36:16.612Z,6.50
2018-12-10T15:38:43.583Z,6.50
2018-12-10T15:41:10.572Z,6.60
2018-12-10T15:43:37.574Z,6.40
2018-12-10T15:46:04.533Z,6.50
2018-12-10T15:48:31.545Z,6.50
2018-12-10T15:50:58.514Z,6.50
2018-12-10T15:53:25.516Z,6.50
2018-12-10T15:55:52.588Z,6.50
2018-12-10T15:58:19.557Z,6.50
2018-12-10T16:00:46.524Z,6.50
2018-12-10T16:03:13.505Z,6.40
2018-12-10T16:05:40.474Z,6.40
2018-12-10T16:08:07.445Z,6.40
2018-12-10T16:10:34.424Z,6.30
2018-12-10T16:13:01.417Z,6.20
2018-12-10T16:15:29.620Z,6.10
2018-12-10T16:17:56.625Z,6.10
2018-12-10T16:20:23.591Z,6.20
2018-12-10T16:22:50.597Z,6.20
2018-12-10T16:25:17.594Z,6.20
2018-12-10T16:27:44.540Z,6.20
2018-12-10T16:30:11.493Z,6.30
2018-12-10T16:32:38.458Z,6.30
2018-12-10T16:35:05.825Z,6.30
2018-12-10T16:37:32.809Z,6.20
2018-12-10T16:39:59.922Z,5.90
2018-12-10T16:42:27.065Z,6.10
2018-12-10T16:44:54.255Z,6.10
2018-12-10T16:47:21.296Z,6.20
2018-12-10T16:49:48.302Z,6.10
2018-12-10T16:52:15.287Z,6.10
2018-12-10T16:54:42.265Z,6.10
2018-12-10T16:57:09.249Z,6.20
2018-12-10T16:59:36.209Z,6.20
2018-12-10T17:02:03.196Z,6.20
2018-12-10T17:04:30.164Z,6.30
2018-12-10T17:06:57.128Z,6.20
2018-12-10T17:09:24.130Z,6.30
2018-12-10T17:11:51.083Z,6.20
2018-12-10T17:14:18.057Z,6.20
2018-12-10T17:16:45.253Z,6.20
2018-12-10T17:19:12.201Z,6.20
2018-12-10T17:21:39.147Z,6.20
2018-12-10T17:24:06.128Z,6.20
2018-12-10T17:26:33.084Z,6.20
2018-12-10T17:29:00.057Z,6.30
2018-12-10T17:31:27.025Z,6.20
2018-12-10T17:33:53.997Z,6.20
2018-12-10T17:36:20.972Z,6.20
2018-12-10T17:38:48.027Z,6.20
2018-12-10T17:41:14.994Z,6.20
2018-12-10T17:43:41.977Z,6.20
2018-12-10T17:46:08.929Z,6.30
2018-12-10T17:48:35.881Z,6.20
2018-12-10T17:51:02.849Z,6.30
2018-12-10T17:53:29.861Z,6.30
2018-12-10T17:55:56.825Z,6.30
2018-12-10T17:58:23.809Z,6.30
2018-12-10T18:00:50.815Z,6.30
2018-12-10T18:03:17.759Z,6.40
2018-12-10T18:05:44.716Z,6.40
2018-12-10T18:08:11.709Z,6.40
2018-12-10T18:10:38.718Z,6.30
2018-12-10T18:13:05.705Z,6.40
2018-12-10T18:15:32.688Z,6.30
2018-12-10T18:17:59.876Z,6.40
2018-12-10T18:20:26.849Z,6.40
2018-12-10T18:22:53.836Z,6.30
2018-12-10T18:25:20.795Z,6.40
2018-12-10T18:27:47.927Z,6.40
2018-12-10T18:30:14.778Z,6.50
2018-12-10T18:32:41.727Z,6.40
2018-12-10T18:35:10.104Z,6.40
2018-12-10T18:37:37.126Z,6.40
2018-12-10T18:40:06.567Z,6.30
2018-12-10T18:42:33.638Z,6.20
2018-12-10T18:45:00.611Z,6.20
2018-12-10T18:47:27.589Z,6.30
2018-12-10T18:49:54.569Z,6.10
2018-12-10T18:52:21.553Z,6.00
2018-12-10T18:54:48.503Z,5.50
2018-12-10T18:57:15.472Z,5.40
2018-12-10T18:59:42.863Z,5.40
2018-12-10T19:02:09.845Z,5.50
2018-12-10T19:04:36.882Z,5.30
2018-12-10T19:07:03.868Z,5.20
2018-12-10T19:09:30.824Z,5.20
2018-12-10T19:11:57.805Z,4.90
2018-12-10T19:14:24.793Z,5.00
2018-12-10T19:16:51.767Z,4.90
2018-12-10T19:19:19.080Z,5.00
2018-12-10T19:21:46.237Z,5.10
2018-12-10T19:24:13.192Z,5.00
2018-12-10T19:26:40.219Z,5.10
2018-12-10T19:29:07.413Z,5.10
2018-12-10T19:31:34.389Z,5.00
2018-12-10T19:34:03.641Z,5.00
2018-12-10T19:36:28.364Z,5.00
2018-12-10T19:38:55.299Z,5.10
2018-12-10T19:41:22.258Z,5.00
2018-12-10T19:43:49.242Z,4.80
2018-12-10T19:46:16.203Z,4.90
2018-12-10T19:48:43.238Z,4.90
2018-12-10T19:51:10.248Z,4.90
2018-12-10T19:53:37.186Z,4.80
2018-12-10T19:56:04.152Z,4.70
2018-12-10T19:58:31.178Z,4.70
2018-12-10T20:00:58.166Z,4.70
2018-12-10T20:03:25.142Z,4.70
2018-12-10T20:05:58.015Z,4.70
2018-12-10T20:08:24.961Z,4.70
2018-12-10T20:10:51.916Z,4.60
2018-12-10T20:13:18.904Z,4.60
2018-12-10T20:15:45.883Z,4.60
2018-12-10T20:18:12.858Z,4.60
2018-12-10T20:20:40.733Z,4.40
2018-12-10T20:23:07.691Z,4.30
2018-12-10T20:25:34.775Z,4.20
2018-12-10T20:28:01.797Z,4.30
2018-12-10T20:30:28.762Z,4.20
2018-12-10T20:32:55.738Z,4.20
2018-12-10T20:35:22.737Z,4.00
2018-12-10T20:37:49.716Z,3.90
2018-12-10T20:40:16.672Z,3.90
2018-12-10T20:42:43.667Z,3.70
2018-12-10T20:45:10.728Z,3.60
2018-12-10T20:47:37.711Z,3.80
2018-12-10T20:50:04.772Z,3.60
2018-12-10T20:52:31.726Z,3.60
2018-12-10T20:54:58.721Z,3.80
2018-12-10T20:57:25.704Z,3.50
2018-12-10T20:59:52.697Z,3.50
2018-12-10T21:02:19.665Z,3.50
2018-12-10T21:04:46.663Z,3.50
2018-12-10T21:07:13.611Z,3.40
2018-12-10T21:09:40.564Z,3.40
2018-12-10T21:12:07.856Z,3.40
2018-12-10T21:14:35.258Z,3.40
2018-12-10T21:17:02.361Z,3.50
2018-12-10T21:19:29.577Z,3.30
2018-12-10T21:21:56.918Z,3.40
2018-12-10T21:24:24.255Z,3.50
2018-12-10T21:26:51.256Z,3.60
2018-12-10T21:29:18.236Z,3.80
2018-12-10T21:31:45.241Z,4.00
2018-12-10T21:34:12.229Z,4.00
2018-12-10T21:36:39.210Z,4.10
2018-12-10T21:39:06.608Z,4.10
2018-12-10T21:41:33.650Z,4.20
2018-12-10T21:44:00.608Z,4.20
2018-12-10T21:46:27.580Z,4.20
2018-12-10T21:48:54.565Z,4.20
2018-12-10T21:51:21.555Z,4.10
2018-12-10T21:53:48.558Z,4.00
2018-12-10T21:56:15.540Z,3.90
2018-12-10T21:58:42.551Z,4.00
2018-12-10T22:01:09.598Z,4.00
2018-12-10T22:03:36.605Z,3.90
2018-12-10T22:06:03.586Z,3.90
2018-12-10T22:08:30.547Z,3.80
2018-12-10T22:10:57.657Z,3.80
2018-12-10T22:13:24.594Z,3.70
2018-12-10T22:15:51.550Z,3.80
2018-12-10T22:18:18.548Z,3.80
2018-12-10T22:20:45.536Z,3.90
2018-12-10T22:23:12.889Z,4.10
2018-12-10T22:25:39.870Z,4.00
2018-12-10T22:28:06.836Z,4.00
2018-12-10T22:30:33.866Z,4.00
2018-12-10T22:33:00.881Z,3.80
2018-12-10T22:35:27.848Z,3.60
2018-12-10T22:37:54.827Z,3.60
2018-12-10T22:40:21.832Z,3.60
2018-12-10T22:42:48.822Z,3.50
2018-12-10T22:45:15.795Z,3.60
2018-12-10T22:47:42.811Z,3.60
2018-12-10T22:50:09.798Z,3.60
2018-12-10T22:52:36.789Z,3.50
2018-12-10T22:55:03.956Z,3.50
2018-12-10T22:57:30.933Z,3.50
2018-12-10T22:59:57.900Z,3.50
2018-12-10T23:02:24.934Z,3.50
2018-12-10T23:04:51.881Z,3.50
2018-12-10T23:07:18.847Z,3.50
2018-12-10T23:09:45.845Z,3.50
2018-12-10T23:12:12.828Z,3.60
2018-12-10T23:14:39.785Z,3.40
2018-12-10T23:17:06.759Z,3.40
2018-12-10T23:19:33.732Z,3.50
2018-12-10T23:22:01.354Z,3.40
2018-12-10T23:24:28.981Z,3.30
2018-12-10T23:26:55.949Z,3.50
2018-12-10T23:29:22.904Z,3.60
2018-12-10T23:31:49.914Z,3.60
2018-12-10T23:34:16.872Z,3.60
2018-12-10T23:36:43.831Z,3.60
2018-12-10T23:39:10.813Z,3.60
2018-12-10T23:41:37.776Z,3.60
2018-12-10T23:44:04.764Z,3.60
2018-12-10T23:46:31.750Z,3.60
2018-12-10T23:48:58.742Z,3.60
2018-12-10T23:51:25.769Z,3.80
2018-12-10T23:53:52.768Z,3.70
2018-12-10T23:56:19.735Z,3.80
2018-12-10T23:58:46.763Z,3.80
